Time;durP1;ratioP1;P1;durP2;ratioP2;P2;SDS_P1;SDS_P2;PMS_P1;PMS_P2;Temp;Humidity;BMP_temperature;BMP_pressure;BME280_temperature;BME280_humidity;BME280_pressure;Samples;Min_cycle;Max_cycle;Signal;HPM_P1;HPM_P2
2021/03/23 00:00:37;;;;;;;13.25;8.82;;;1.60;99.90;;;;;;5058605;28;20025;-69
2021/03/23 00:03:18;;;;;;;16.73;9.50;;;2.80;99.90;;;;;;5057284;28;20477;-69
2021/03/23 00:05:44;;;;;;;15.85;10.32;;;1.60;99.90;;;;;;5058608;28;20021;-69
2021/03/23 00:08:29;;;;;;;17.63;10.57;;;1.80;99.90;;;;;;5058741;28;20024;-69
2021/03/23 00:10:57;;;;;;;15.75;9.93;;;1.50;99.90;;;;;;5058420;28;20123;-69
2021/03/23 00:13:23;;;;;;;18.90;10.15;;;;;;;;;;5058553;28;20067;-69
2021/03/23 00:15:49;;;;;;;18.63;10.27;;;1.30;99.90;;;;;;5058638;28;20095;-69
2021/03/23 00:18:16;;;;;;;15.88;9.15;;;0.10;99.90;;;;;;5058427;28;20079;-69
2021/03/23 00:20:42;;;;;;;16.55;10.82;;;1.50;99.90;;;;;;5058318;28;20021;-69
2021/03/23 00:23:09;;;;;;;15.15;9.65;;;1.30;99.90;;;;;;5058266;28;20420;-69
2021/03/23 00:25:35;;;;;;;15.20;9.38;;;2.50;99.90;;;;;;5058425;28;20079;-69
2021/03/23 00:28:01;;;;;;;;;;;2.00;99.90;;;;;;5058679;28;20028;-69
2021/03/23 00:30:27;;;;;;;12.75;8.88;;;2.70;99.90;;;;;;5058012;28;19953;-70
2021/03/23 00:32:53;;;;;;;;;;;;;;;;;;5058655;28;20056;-69
2021/03/23 00:35:19;;;;;;;14.48;8.73;;;2.60;99.90;;;;;;5054849;28;19904;-69
2021/03/23 00:37:45;;;;;;;;;;;;;;;;;;5058322;28;20105;-69
2021/03/23 00:40:16;;;;;;;13.52;8.50;;;;;;;;;;5058103;28;19911;-69
2021/03/23 00:42:42;;;;;;;15.90;9.45;;;2.00;99.90;;;;;;5057958;28;20393;-69
2021/03/23 00:45:09;;;;;;;14.32;9.52;;;1.50;99.90;;;;;;5057905;28;20021;-71
2021/03/23 00:47:35;;;;;;;15.30;9.15;;;-0.10;99.90;;;;;;5057900;28;20116;-69
2021/03/23 00:50:01;;;;;;;;;;;;;;;;;;5058320;28;20056;-69
2021/03/23 00:52:27;;;;;;;13.85;8.93;;;;;;;;;;5057656;28;20285;-69
2021/03/23 00:54:53;;;;;;;14.38;9.60;;;;;;;;;;5057936;28;20048;-69
2021/03/23 00:57:20;;;;;;;14.45;8.88;;;1.50;99.90;;;;;;5056495;28;20033;-69
2021/03/23 00:59:46;;;;;;;14.85;9.02;;;1.40;99.90;;;;;;5056145;28;20025;-69
2021/03/23 01:02:12;;;;;;;15.82;10.20;;;;;;;;;;5056147;28;20052;-69
2021/03/23 01:04:38;;;;;;;15.93;9.95;;;1.30;99.90;;;;;;5057650;28;20048;-69
2021/03/23 01:07:04;;;;;;;14.38;10.85;;;;;;;;;;5057490;28;20021;-69
2021/03/23 01:09:30;;;;;;;15.80;9.77;;;2.00;99.90;;;;;;5057522;28;20477;-69
2021/03/23 01:11:56;;;;;;;13.27;10.23;;;;;;;;;;5057310;28;20436;-69
2021/03/23 01:14:23;;;;;;;15.02;9.88;;;;;;;;;;5057593;28;20025;-69
2021/03/23 01:16:49;;;;;;;17.13;11.20;;;1.80;99.90;;;;;;5056536;28;20063;-69
2021/03/23 01:19:15;;;;;;;19.13;10.95;;;;;;;;;;5057352;28;20021;-69
2021/03/23 01:21:41;;;;;;;13.70;10.40;;;1.60;99.90;;;;;;5057058;28;20033;-69
2021/03/23 01:24:08;;;;;;;20.30;10.98;;;;;;;;;;5057335;28;20028;-69
2021/03/23 01:26:34;;;;;;;17.83;10.90;;;1.60;99.90;;;;;;5055781;28;20029;-69
2021/03/23 01:28:59;;;;;;;20.80;9.77;;;1.90;99.90;;;;;;5057059;28;20021;-69
2021/03/23 01:31:25;;;;;;;18.70;10.70;;;1.50;99.90;;;;;;5056826;28;20039;-69
2021/03/23 01:33:51;;;;;;;;;;;;;;;;;;5055392;28;20025;-69
2021/03/23 01:36:18;;;;;;;17.60;8.73;;;;;;;;;;5054626;28;19912;-69
2021/03/23 01:38:44;;;;;;;18.38;10.48;;;;;;;;;;5056897;28;20037;-69
2021/03/23 01:41:10;;;;;;;;;;;;;;;;;;5057219;28;20028;-69
2021/03/23 01:43:36;;;;;;;16.88;10.77;;;;;;;;;;5056954;28;20347;-69
2021/03/23 01:46:04;;;;;;;14.23;9.77;;;;;;;;;;5056539;28;20024;-69
2021/03/23 01:48:33;;;;;;;14.00;9.73;;;1.10;99.90;;;;;;5056846;28;20710;-69
2021/03/23 01:51:03;;;;;;;18.55;11.07;;;;;;;;;;5056496;28;20028;-69
2021/03/23 01:53:46;;;;;;;16.55;10.35;;;1.50;99.90;;;;;;5056738;28;20021;-69
2021/03/23 01:56:15;;;;;;;17.63;10.57;;;1.50;99.90;;;;;;5056846;28;20111;-69
2021/03/23 01:58:44;;;;;;;21.00;12.13;;;1.20;99.90;;;;;;5056729;28;20550;-69
2021/03/23 02:01:12;;;;;;;17.63;10.90;;;;;;;;;;5056417;28;20021;-69
2021/03/23 02:03:38;;;;;;;18.52;10.55;;;1.90;99.90;;;;;;5056554;28;20071;-70
2021/03/23 02:06:05;;;;;;;18.42;9.48;;;;;;;;;;5055181;28;20025;-69
2021/03/23 02:08:31;;;;;;;16.27;9.48;;;1.40;99.90;;;;;;5056749;28;20021;-69
2021/03/23 02:11:00;;;;;;;17.05;10.60;;;;;;;;;;5056334;28;20136;-69
2021/03/23 02:13:26;;;;;;;19.52;10.05;;;;;;;;;;5056359;28;20075;-69
2021/03/23 02:15:53;;;;;;;20.63;10.60;;;;;;;;;;5056658;28;20029;-69
2021/03/23 02:18:22;;;;;;;15.85;10.73;;;;;;;;;;5056586;28;20032;-69
2021/03/23 02:21:05;;;;;;;19.25;11.57;;;;;;;;;;5056315;28;20029;-69
2021/03/23 02:23:33;;;;;;;15.05;9.73;;;;;;;;;;5056484;28;20027;-69
2021/03/23 02:26:00;;;;;;;13.52;9.05;;;;;;;;;;5056533;28;20081;-69
2021/03/23 02:28:27;;;;;;;21.35;11.50;;;;;;;;;;5060244;28;20021;-69
2021/03/23 02:30:54;;;;;;;16.48;9.90;;;;;;;;;;5060451;28;20036;-69
2021/03/23 02:33:20;;;;;;;18.75;11.05;;;;;;;;;;5060644;28;20063;-69
2021/03/23 02:35:46;;;;;;;;;;;;;;;;;;5057236;28;20396;-69
2021/03/23 02:38:12;;;;;;;14.88;10.20;;;;;;;;;;5060366;28;19905;-69
2021/03/23 02:40:40;;;;;;;15.15;10.27;;;;;;;;;;5058969;28;20393;-69
2021/03/23 02:43:06;;;;;;;16.33;11.43;;;;;;;;;;5059058;28;20478;-69
2021/03/23 02:45:32;;;;;;;;;;;;;;;;;;5060301;28;20021;-69
2021/03/23 02:47:58;;;;;;;15.85;9.45;;;;;;;;;;5060253;28;19909;-69
2021/03/23 02:50:24;;;;;;;13.82;9.68;;;;;;;;;;5060152;28;20104;-69
2021/03/23 02:52:50;;;;;;;15.63;10.05;;;;;;;;;;5060225;28;20481;-69
2021/03/23 02:55:16;;;;;;;16.92;10.52;;;;;;;;;;5059076;28;20036;-69
2021/03/23 02:57:42;;;;;;;;;;;;;;;;;;5060547;28;20033;-69
2021/03/23 03:00:10;;;;;;;12.23;8.95;;;;;;;;;;5059709;28;19930;-69
2021/03/23 03:02:36;;;;;;;16.80;10.07;;;;;;;;;;5059927;28;20131;-69
2021/03/23 03:05:03;;;;;;;16.02;10.75;;;;;;;;;;5058620;28;20029;-69
2021/03/23 03:07:29;;;;;;;14.98;10.57;;;;;;;;;;5059862;28;20053;-69
2021/03/23 03:09:55;;;;;;;;;;;;;;;;;;5060340;28;20013;-69
2021/03/23 03:12:21;;;;;;;15.73;9.75;;;;;;;;;;5060343;28;20265;-69
2021/03/23 03:14:47;;;;;;;14.85;9.75;;;;;;;;;;5059378;28;20116;-69
2021/03/23 03:17:13;;;;;;;;;;;;;;;;;;5060174;28;20028;-70
2021/03/23 03:19:40;;;;;;;12.18;8.25;;;;;;;;;;5059623;28;19904;-69
2021/03/23 03:22:05;;;;;;;;;;;;;;;;;;5059958;28;20036;-69
2021/03/23 03:24:32;;;;;;;16.83;9.25;;;;;;;;;;5059477;28;19905;-69
2021/03/23 03:26:58;;;;;;;;;;;;;;;;;;5059842;28;20083;-69
2021/03/23 03:29:24;;;;;;;15.40;10.32;;;;;;;;;;5059329;28;19931;-69
2021/03/23 03:31:50;;;;;;;18.05;11.38;;;;;;;;;;5059364;28;20481;-69
2021/03/23 03:34:16;;;;;;;;;;;;;;;;;;5056228;28;20502;-69
2021/03/23 03:36:42;;;;;;;16.23;10.10;;;;;;;;;;5059310;28;19905;-69
2021/03/23 03:39:08;;;;;;;;;;;;;;;;;;5058774;28;20033;-69
2021/03/23 03:41:35;;;;;;;13.57;9.05;;;;;;;;;;5059304;28;20092;-69
2021/03/23 03:44:01;;;;;;;15.82;10.05;;;;;;;;;;5059089;28;20142;-69
2021/03/23 03:46:27;;;;;;;13.60;9.25;;;;;;;;;;5059025;28;20104;-69
2021/03/23 03:48:53;;;;;;;;;;;;;;;;;;5058103;28;20021;-69
2021/03/23 03:51:19;;;;;;;12.48;9.25;;;;;;;;;;5059118;28;19909;-69
2021/03/23 03:56:08;;;;;;;14.32;9.75;;;;;;;;;;5094208;28;20409;-70
2021/03/23 03:58:34;;;;;;;19.38;10.27;;;;;;;;;;5092923;28;20493;-69
2021/03/23 04:01:00;;;;;;;;;;;;;;;;;;5094419;28;21249;-70
2021/03/23 04:03:27;;;;;;;14.48;9.18;;;;;;;;;;5094125;28;19904;-70
2021/03/23 04:05:54;;;;;;;19.05;10.80;;;;;;;;;;5094110;28;20105;-69
2021/03/23 04:08:22;;;;;;;17.25;10.20;;;;;;;;;;5094142;28;20017;-70
2021/03/23 04:10:49;;;;;;;15.88;10.45;;;;;;;;;;5094032;28;20416;-69
2021/03/23 04:13:16;;;;;;;14.40;9.82;;;;;;;;;;5093874;28;20488;-69
2021/03/23 04:15:44;;;;;;;14.98;9.43;;;;;;;;;;5092394;28;20036;-70
2021/03/23 04:18:11;;;;;;;15.20;9.02;;;;;;;;;;5093831;28;20028;-70
2021/03/23 04:20:38;;;;;;;16.05;9.07;;;;;;;;;;5093630;28;20024;-70
2021/03/23 04:23:04;;;;;;;;;;;;;;;;;;5092355;28;20104;-70
2021/03/23 04:25:31;;;;;;;13.95;9.50;;;;;;;;;;5073559;28;19940;-70
2021/03/23 04:27:57;;;;;;;15.25;9.43;;;;;;;;;;5073389;28;20592;-70
2021/03/23 04:30:24;;;;;;;14.07;9.93;;;;;;;;;;5072975;28;20021;-70
2021/03/23 04:32:52;;;;;;;13.82;9.25;;;;;;;;;;5073416;28;20057;-70
2021/03/23 04:35:24;;;;;;;12.85;9.75;;;;;;;;;;5069858;28;20051;-70
2021/03/23 04:37:50;;;;;;;12.38;9.98;;;;;;;;;;5073115;28;20025;-70
2021/03/23 04:40:16;;;;;;;16.25;10.93;;;;;;;;;;5073263;28;20020;-70
2021/03/23 04:42:43;;;;;;;15.15;10.35;;;;;;;;;;5072996;28;20412;-70
2021/03/23 04:45:09;;;;;;;14.20;10.13;;;;;;;;;;5071701;28;20032;-70
2021/03/23 04:47:35;;;;;;;13.68;10.32;;;;;;;;;;5072982;28;20031;-70
2021/03/23 04:50:01;;;;;;;;;;;;;;;;;;5073292;28;20100;-70
2021/03/23 04:52:27;;;;;;;18.27;10.57;;;;;;;;;;5072693;28;19962;-70
2021/03/23 04:54:53;;;;;;;;;;;;;;;;;;5073258;28;20045;-70
2021/03/23 05:01:54;;;;;;;16.30;10.55;;;;;;;;;;5114306;27;20343;-69
2021/03/23 05:04:20;;;;;;;15.90;10.85;;;;;;;;;;5114817;28;20070;-69
2021/03/23 05:06:46;;;;;;;;;;;;;;;;;;5114830;28;20020;-69
2021/03/23 05:09:37;;;;;;;13.38;9.90;;;;;;;;;;5114479;27;20380;-69
2021/03/23 05:12:36;;;;;;;14.50;10.77;;;;;;;;;;5114463;27;20388;-69
2021/03/23 05:15:02;;;;;;;18.17;9.90;;;;;;;;;;5112910;28;20036;-70
2021/03/23 05:26:33;;;;;;;14.48;10.13;;;;;;;;;;5114572;27;20372;-70
2021/03/23 05:29:00;;;;;;;13.13;10.27;;;;;;;;;;5110892;28;20025;-70
2021/03/23 05:31:26;;;;;;;;;;;;;;;;;;5094215;28;20054;-70
2021/03/23 05:35:56;;;;;;;13.35;10.20;;;;;;;;;;5114306;27;20882;-70
2021/03/23 05:42:41;;;;;;;19.87;11.17;;;;;;;;;;5109199;27;955834;-69
2021/03/23 05:47:03;;;;;;;15.75;10.55;;;;;;;;;;5114609;27;20377;-69
2021/03/23 05:56:09;;;;;;;18.73;10.30;;;;;;;;;;5114602;27;20343;-69
2021/03/23 06:00:50;;;;;;;16.80;11.00;;;;;;;;;;5093892;27;20344;-69
2021/03/23 06:07:12;;;;;;;18.27;10.98;;;;;;;;;;5114480;27;20373;-69
2021/03/23 06:09:39;;;;;;;13.95;10.13;;;;;;;;;;5114554;28;20106;-69
2021/03/23 06:15:30;;;;;;;17.40;10.60;;;;;;;;;;5114181;27;20380;-69
